createdAt,value
2017-11-25T00:05:56.240Z,64.0
2017-11-25T00:22:44.183Z,64.4
2017-11-25T00:39:32.089Z,64.4
2017-11-25T00:56:20.803Z,64.8
2017-11-25T01:13:07.827Z,64.8
2017-11-25T01:29:55.717Z,64.8
2017-11-25T01:46:42.997Z,64.8
2017-11-25T02:03:29.916Z,64.4
2017-11-25T02:20:17.011Z,64.4
2017-11-25T02:37:04.253Z,64.4
2017-11-25T02:53:51.101Z,64.0
2017-11-25T03:10:38.010Z,64.0
2017-11-25T03:27:25.063Z,64.0
2017-11-25T03:44:11.992Z,64.0
2017-11-25T04:00:58.831Z,64.0
2017-11-25T04:17:45.732Z,63.6
2017-11-25T04:34:32.538Z,63.6
2017-11-25T04:51:19.370Z,63.2
2017-11-25T05:08:07.140Z,63.2
2017-11-25T05:24:52.988Z,63.2
2017-11-25T05:41:39.569Z,63.2
2017-11-25T05:58:26.195Z,63.2
2017-11-25T06:15:12.994Z,63.2
2017-11-25T06:31:59.726Z,63.2
2017-11-25T06:48:46.641Z,62.8
2017-11-25T07:05:33.538Z,62.8
2017-11-25T07:22:20.370Z,62.8
2017-11-25T07:39:07.319Z,61.6
2017-11-25T07:55:54.506Z,60.8
2017-11-25T08:12:40.811Z,60.8
2017-11-25T08:29:27.503Z,60.8
2017-11-25T08:46:14.446Z,60.8
2017-11-25T09:03:01.505Z,61.6
2017-11-25T09:19:48.715Z,61.6
2017-11-25T09:36:36.224Z,61.6
2017-11-25T09:53:23.876Z,61.2
2017-11-25T10:10:11.553Z,61.2
2017-11-25T10:26:59.197Z,61.2
2017-11-25T10:43:46.909Z,61.2
2017-11-25T11:00:34.626Z,61.2
2017-11-25T11:17:22.315Z,61.2
2017-11-25T11:34:10.823Z,61.6
2017-11-25T11:50:59.211Z,61.6
2017-11-25T12:07:47.630Z,61.6
2017-11-25T12:24:36.077Z,61.6
2017-11-25T12:41:24.467Z,62.0
2017-11-25T12:58:13.012Z,62.4
2017-11-25T13:15:01.060Z,62.8
2017-11-25T13:31:49.603Z,63.2
2017-11-25T13:48:37.890Z,62.8
2017-11-25T14:00:23.701Z,60.8
2017-11-25T14:17:11.986Z,59.6
2017-11-25T14:34:00.217Z,60.0
2017-11-25T14:50:48.421Z,60.4
2017-11-25T15:07:36.735Z,60.4
2017-11-25T15:24:25.089Z,60.8
2017-11-25T15:41:13.354Z,61.2
2017-11-25T15:58:01.669Z,62.0
2017-11-25T16:14:50.122Z,61.2
2017-11-25T16:31:38.521Z,61.6
2017-11-25T16:48:26.939Z,62.4
2017-11-25T17:05:14.976Z,62.4
2017-11-25T17:22:02.661Z,62.8
2017-11-25T17:38:50.421Z,62.8
2017-11-25T17:55:38.259Z,62.8
2017-11-25T18:12:26.165Z,62.8
2017-11-25T18:29:14.402Z,62.8
2017-11-25T18:46:01.917Z,63.2
2017-11-25T19:02:49.851Z,63.2
2017-11-25T19:19:37.697Z,63.2
2017-11-25T19:36:25.676Z,63.2
2017-11-25T19:53:13.585Z,63.2
2017-11-25T20:10:01.263Z,63.2
2017-11-25T20:26:49.227Z,63.2
2017-11-25T20:43:36.978Z,63.2
2017-11-25T21:00:24.981Z,63.2
2017-11-25T21:17:12.939Z,63.2
2017-11-25T21:34:00.617Z,63.2
2017-11-25T21:50:48.365Z,63.2
2017-11-25T22:07:36.131Z,63.2
2017-11-25T22:24:23.953Z,63.2
2017-11-25T22:41:11.725Z,62.8
2017-11-25T22:58:00.111Z,62.8
2017-11-25T23:14:46.969Z,62.8
2017-11-25T23:31:34.591Z,62.8
2017-11-25T23:48:22.111Z,62.8
